createdAt,value
2022-11-05T00:00:16.202Z,3.40
2022-11-05T00:03:07.297Z,3.00
2022-11-05T00:05:52.893Z,3.33
2022-11-05T00:08:38.206Z,3.27
2022-11-05T00:11:06.301Z,3.50
2022-11-05T00:13:53.024Z,3.10
2022-11-05T00:16:34.796Z,3.70
2022-11-05T00:19:09.898Z,3.50
2022-11-05T00:21:56.649Z,3.60
2022-11-05T00:24:43.320Z,3.60
2022-11-05T00:27:11.589Z,3.40
2022-11-05T00:29:40.768Z,4.23
2022-11-05T00:32:08.613Z,3.30
2022-11-05T00:34:36.435Z,3.50
2022-11-05T00:37:04.311Z,4.30
2022-11-05T00:39:32.150Z,4.00
2022-11-05T00:42:17.510Z,4.27
2022-11-05T00:45:02.056Z,3.47
2022-11-05T00:47:59.636Z,4.77
2022-11-05T00:50:28.447Z,6.80
2022-11-05T00:52:59.283Z,5.83
2022-11-05T00:55:30.016Z,4.97
2022-11-05T00:57:58.490Z,5.70
2022-11-05T01:00:29.487Z,4.83
2022-11-05T01:03:01.746Z,5.93
2022-11-05T01:05:30.864Z,4.40
2022-11-05T01:07:59.457Z,5.10
2022-11-05T01:10:28.006Z,4.87
2022-11-05T01:12:56.017Z,4.90
2022-11-05T01:15:24.519Z,4.70
2022-11-05T01:17:53.854Z,4.97
2022-11-05T01:20:21.700Z,4.80
2022-11-05T01:22:49.509Z,5.57
2022-11-05T01:25:17.482Z,5.00
2022-11-05T01:27:45.351Z,5.07
2022-11-05T01:30:14.221Z,6.00
2022-11-05T01:32:42.122Z,6.13
2022-11-05T01:35:14.164Z,6.50
2022-11-05T01:37:42.380Z,7.50
2022-11-05T01:40:12.531Z,7.20
2022-11-05T01:42:40.401Z,6.40
2022-11-05T01:45:17.134Z,7.13
2022-11-05T01:48:04.090Z,7.10
2022-11-05T01:50:38.155Z,6.60
2022-11-05T01:53:16.273Z,7.37
2022-11-05T01:55:49.022Z,6.50
2022-11-05T01:58:22.208Z,6.97
2022-11-05T02:00:50.104Z,6.93
2022-11-05T02:03:19.173Z,8.17
2022-11-05T02:05:50.546Z,7.57
2022-11-05T02:08:28.133Z,7.37
2022-11-05T02:10:56.185Z,7.80
2022-11-05T02:13:24.014Z,8.80
2022-11-05T02:16:02.001Z,8.67
2022-11-05T02:18:41.741Z,9.23
2022-11-05T02:21:37.402Z,8.50
2022-11-05T02:24:52.966Z,10.07
2022-11-05T02:27:33.202Z,9.23
2022-11-05T02:30:08.300Z,10.17
2022-11-05T02:32:55.397Z,9.07
2022-11-05T02:35:37.702Z,10.33
2022-11-05T02:38:10.356Z,10.73
2022-11-05T02:40:48.332Z,10.17
2022-11-05T02:43:24.223Z,11.70
2022-11-05T02:46:03.037Z,13.43
2022-11-05T02:48:43.801Z,10.67
2022-11-05T02:51:17.516Z,11.37
2022-11-05T02:53:51.892Z,12.50
2022-11-05T02:56:24.730Z,9.93
2022-11-05T02:58:52.589Z,12.63
2022-11-05T03:01:20.593Z,11.63
2022-11-05T03:03:52.625Z,11.33
2022-11-05T03:06:48.213Z,12.27
2022-11-05T03:10:00.351Z,11.40
2022-11-05T03:12:34.612Z,12.27
2022-11-05T03:15:12.884Z,14.07
2022-11-05T03:17:51.266Z,12.17
2022-11-05T03:20:24.829Z,14.17
2022-11-05T03:22:56.656Z,13.60
2022-11-05T03:25:26.773Z,12.40
2022-11-05T03:27:59.645Z,11.80
2022-11-05T03:30:27.857Z,12.40
2022-11-05T03:32:59.326Z,12.67
2022-11-05T03:35:31.481Z,13.03
2022-11-05T03:38:03.034Z,12.73
2022-11-05T03:40:35.862Z,16.37
2022-11-05T03:43:08.013Z,13.63
2022-11-05T03:45:41.420Z,11.70
2022-11-05T03:48:12.462Z,12.20
2022-11-05T03:50:46.718Z,11.80
2022-11-05T03:53:18.516Z,12.90
2022-11-05T03:55:52.521Z,11.77
2022-11-05T03:58:22.486Z,12.83
2022-11-05T04:00:51.722Z,12.07
2022-11-05T04:03:19.834Z,11.13
2022-11-05T04:06:09.201Z,11.93
2022-11-05T04:08:54.580Z,10.90
2022-11-05T04:11:39.963Z,12.03
2022-11-05T04:14:07.773Z,11.47
2022-11-05T04:16:53.518Z,14.60
2022-11-05T04:19:41.425Z,12.63
2022-11-05T04:22:28.006Z,12.10
2022-11-05T04:24:55.837Z,12.17
2022-11-05T04:27:23.780Z,12.83
2022-11-05T04:30:09.228Z,12.83
2022-11-05T04:32:37.157Z,12.67
2022-11-05T04:35:05.285Z,13.40
2022-11-05T04:37:34.465Z,13.50
2022-11-05T04:40:02.372Z,13.53
2022-11-05T04:42:30.279Z,13.27
2022-11-05T04:44:58.119Z,12.07
2022-11-05T04:47:25.946Z,11.70
2022-11-05T04:49:53.770Z,11.73
2022-11-05T04:52:21.641Z,13.18
2022-11-05T04:54:50.794Z,13.27
2022-11-05T04:57:18.633Z,13.03
2022-11-05T04:59:49.102Z,11.57
2022-11-05T05:02:17.043Z,11.97
2022-11-05T05:04:44.916Z,11.63
2022-11-05T05:07:12.749Z,11.60
2022-11-05T05:09:40.584Z,13.07
2022-11-05T05:12:10.000Z,12.07
2022-11-05T05:14:38.066Z,12.40
2022-11-05T05:17:05.942Z,12.70
2022-11-05T05:19:54.291Z,12.17
2022-11-05T05:22:21.129Z,12.63
2022-11-05T05:24:52.747Z,11.07
2022-11-05T05:27:23.275Z,11.07
2022-11-05T05:29:51.130Z,13.20
2022-11-05T05:32:18.978Z,12.27
2022-11-05T05:34:46.794Z,12.63
2022-11-05T05:37:14.742Z,10.70
2022-11-05T05:39:44.473Z,11.30
2022-11-05T05:42:12.635Z,11.77
2022-11-05T05:44:41.906Z,11.23
2022-11-05T05:47:09.801Z,11.50
2022-11-05T05:49:37.808Z,12.67
2022-11-05T05:52:05.929Z,11.10
2022-11-05T05:54:38.304Z,13.83
2022-11-05T05:57:09.264Z,12.50
2022-11-05T05:59:37.128Z,12.67
2022-11-05T06:02:06.465Z,11.37
2022-11-05T06:04:34.368Z,11.07
2022-11-05T06:07:02.202Z,11.13
2022-11-05T06:09:30.201Z,11.40
2022-11-05T06:11:58.016Z,11.40
2022-11-05T06:14:25.857Z,11.40
2022-11-05T06:16:53.695Z,10.07
2022-11-05T06:19:23.116Z,10.27
2022-11-05T06:21:51.018Z,11.17
2022-11-05T06:24:18.850Z,10.70
2022-11-05T06:26:46.687Z,11.20
2022-11-05T06:29:14.527Z,10.30
2022-11-05T06:31:42.419Z,9.50
2022-11-05T06:34:10.295Z,10.27
2022-11-05T06:36:40.075Z,11.27
2022-11-05T06:39:11.499Z,10.57
2022-11-05T06:42:03.889Z,10.53
2022-11-05T06:44:27.207Z,10.80
2022-11-05T06:46:55.089Z,11.13
2022-11-05T06:49:24.462Z,11.00
2022-11-05T06:51:53.729Z,11.27
2022-11-05T06:54:21.764Z,10.73
2022-11-05T06:56:49.602Z,10.90
2022-11-05T06:59:17.437Z,10.17
2022-11-05T07:01:45.597Z,9.37
2022-11-05T07:04:13.588Z,9.93
2022-11-05T07:06:41.451Z,9.30
2022-11-05T07:09:10.649Z,9.13
2022-11-05T07:11:38.489Z,8.97
2022-11-05T07:14:06.319Z,9.33
2022-11-05T07:16:34.183Z,10.37
2022-11-05T07:19:02.015Z,8.93
2022-11-05T07:21:29.852Z,9.47
2022-11-05T07:23:57.671Z,9.83
2022-11-05T07:26:31.854Z,9.40
2022-11-05T07:29:02.171Z,9.57
2022-11-05T07:31:30.023Z,10.93
2022-11-05T07:33:59.105Z,10.20
2022-11-05T07:36:26.961Z,9.23
2022-11-05T07:38:59.876Z,9.80
2022-11-05T07:41:29.727Z,10.17
2022-11-05T07:43:57.623Z,9.20
2022-11-05T07:46:25.459Z,10.37
2022-11-05T07:48:53.313Z,10.30
2022-11-05T07:51:21.118Z,10.43
2022-11-05T07:53:49.116Z,11.03
2022-11-05T07:56:17.148Z,10.43
2022-11-05T07:58:46.329Z,10.93
2022-11-05T08:01:14.312Z,11.17
2022-11-05T08:03:42.292Z,10.97
2022-11-05T08:06:10.239Z,11.20
2022-11-05T08:08:38.053Z,11.57
2022-11-05T08:11:06.859Z,12.63
2022-11-05T08:13:35.437Z,10.90
2022-11-05T08:16:05.658Z,12.03
2022-11-05T08:18:33.994Z,12.07
2022-11-05T08:21:04.698Z,11.70
2022-11-05T08:23:33.689Z,12.33
2022-11-05T08:26:04.245Z,13.37
2022-11-05T08:28:32.703Z,13.23
2022-11-05T08:31:00.542Z,13.50
2022-11-05T08:33:31.251Z,12.67
2022-11-05T08:36:03.471Z,12.43
2022-11-05T08:38:32.182Z,12.50
2022-11-05T08:41:00.355Z,12.00
2022-11-05T08:43:28.251Z,10.77
2022-11-05T08:45:56.444Z,11.53
2022-11-05T08:48:24.307Z,11.57
2022-11-05T08:50:53.523Z,12.23
2022-11-05T08:53:21.399Z,11.63
2022-11-05T08:55:51.089Z,12.03
2022-11-05T08:58:20.560Z,12.20
2022-11-05T09:00:50.549Z,10.83
2022-11-05T09:03:18.708Z,11.00
2022-11-05T09:05:46.917Z,11.43
2022-11-05T09:08:18.301Z,11.60
2022-11-05T09:10:47.703Z,10.83
2022-11-05T09:13:19.499Z,10.50
2022-11-05T09:15:48.892Z,10.50
2022-11-05T09:18:17.921Z,10.43
2022-11-05T09:20:46.555Z,9.97
2022-11-05T09:23:16.232Z,10.70
2022-11-05T09:25:44.534Z,10.33
2022-11-05T09:28:16.774Z,9.87
2022-11-05T09:30:46.804Z,10.90
2022-11-05T09:33:15.264Z,10.73
2022-11-05T09:35:43.881Z,10.73
2022-11-05T09:38:12.232Z,10.07
2022-11-05T09:40:46.135Z,10.67
2022-11-05T09:43:19.224Z,11.57
2022-11-05T09:45:50.559Z,10.07
2022-11-05T09:48:22.358Z,11.23
2022-11-05T09:50:52.461Z,10.37
2022-11-05T09:53:22.470Z,10.93
2022-11-05T09:55:55.276Z,10.33
2022-11-05T09:58:32.245Z,9.87
2022-11-05T10:01:00.276Z,10.53
2022-11-05T10:03:31.307Z,10.10
2022-11-05T10:06:08.261Z,9.93
2022-11-05T10:08:42.017Z,10.30
2022-11-05T10:11:16.769Z,8.97
2022-11-05T10:13:48.004Z,9.63
2022-11-05T10:16:24.344Z,10.17
2022-11-05T10:18:56.673Z,11.10
2022-11-05T10:21:51.526Z,9.80
2022-11-05T10:24:16.447Z,10.03
2022-11-05T10:26:50.335Z,9.93
2022-11-05T10:29:26.421Z,9.17
2022-11-05T10:31:56.129Z,10.77
2022-11-05T10:34:27.810Z,9.90
2022-11-05T10:36:55.710Z,10.17
2022-11-05T10:39:27.475Z,9.90
2022-11-05T10:42:09.355Z,10.10
2022-11-05T10:44:42.471Z,10.57
2022-11-05T10:47:43.311Z,10.03
2022-11-05T10:50:13.716Z,10.40
2022-11-05T10:52:52.234Z,10.00
2022-11-05T10:55:29.501Z,9.97
2022-11-05T10:58:09.090Z,10.07
2022-11-05T11:00:37.640Z,10.33
2022-11-05T11:03:07.406Z,9.33
2022-11-05T11:05:38.954Z,9.40
2022-11-05T11:08:23.223Z,9.23
2022-11-05T11:10:55.713Z,9.83
2022-11-05T11:13:27.633Z,9.23
2022-11-05T11:16:13.943Z,9.43
2022-11-05T11:18:44.772Z,9.03
2022-11-05T11:21:16.664Z,9.63
2022-11-05T11:23:53.883Z,9.50
2022-11-05T11:26:22.674Z,9.50
2022-11-05T11:28:57.229Z,8.90
2022-11-05T11:31:26.710Z,8.67
2022-11-05T11:33:59.727Z,8.87
2022-11-05T11:36:35.099Z,9.03
2022-11-05T11:39:05.250Z,8.97
2022-11-05T11:41:36.949Z,8.90
2022-11-05T11:44:12.955Z,8.23
2022-11-05T11:46:41.058Z,8.97
2022-11-05T11:49:31.755Z,8.40
2022-11-05T11:52:04.199Z,8.13
2022-11-05T11:54:34.306Z,7.43
2022-11-05T11:57:02.213Z,7.93
2022-11-05T11:59:54.298Z,7.57
2022-11-05T12:02:48.038Z,6.60
2022-11-05T12:05:24.633Z,7.23
2022-11-05T12:07:54.870Z,7.10
2022-11-05T12:10:47.489Z,6.47
2022-11-05T12:13:47.192Z,5.77
2022-11-05T12:16:26.009Z,5.80
2022-11-05T12:18:59.329Z,5.63
2022-11-05T12:21:51.941Z,5.57
2022-11-05T12:24:55.593Z,4.60
2022-11-05T12:27:41.308Z,5.00
2022-11-05T12:30:14.798Z,4.50
2022-11-05T12:32:56.219Z,4.90
2022-11-05T12:35:46.995Z,4.73
2022-11-05T12:38:28.309Z,4.70
2022-11-05T12:41:08.774Z,3.70
2022-11-05T12:43:49.845Z,3.83
2022-11-05T12:46:27.213Z,4.37
2022-11-05T12:49:25.105Z,3.90
2022-11-05T12:52:07.409Z,3.43
2022-11-05T12:54:53.535Z,3.90
2022-11-05T12:57:23.767Z,3.70
2022-11-05T12:59:55.876Z,3.93
2022-11-05T13:02:29.307Z,3.37
2022-11-05T13:05:02.725Z,3.57
2022-11-05T13:07:34.189Z,3.33
2022-11-05T13:10:08.367Z,3.50
2022-11-05T13:12:40.768Z,3.70
2022-11-05T13:15:20.554Z,3.50
2022-11-05T13:17:53.689Z,3.33
2022-11-05T13:20:26.136Z,3.30
2022-11-05T13:22:58.017Z,3.27
2022-11-05T13:25:29.571Z,2.87
2022-11-05T13:28:03.382Z,3.00
2022-11-05T13:30:37.227Z,3.27
2022-11-05T13:33:08.496Z,3.27
2022-11-05T13:35:43.886Z,3.40
2022-11-05T13:38:38.783Z,3.03
2022-11-05T13:41:21.314Z,3.17
2022-11-05T13:44:05.861Z,2.90
2022-11-05T13:46:47.843Z,3.23
2022-11-05T13:49:48.381Z,2.83
2022-11-05T13:52:37.593Z,3.00
2022-11-05T13:55:41.475Z,3.10
2022-11-05T13:58:35.023Z,3.03
2022-11-05T14:01:15.340Z,3.27
2022-11-05T14:03:48.162Z,2.37
2022-11-05T14:06:23.637Z,2.80
2022-11-05T14:08:56.473Z,2.87
2022-11-05T14:11:30.145Z,2.83
2022-11-05T14:14:00.408Z,2.87
2022-11-05T14:16:40.627Z,2.93
2022-11-05T14:19:33.323Z,2.90
2022-11-05T14:22:21.404Z,2.77
2022-11-05T14:24:50.605Z,3.10
2022-11-05T14:27:43.534Z,3.10
2022-11-05T14:30:44.165Z,3.00
2022-11-05T14:33:34.316Z,3.03
2022-11-05T14:36:41.142Z,2.43
2022-11-05T14:39:25.464Z,2.67
2022-11-05T14:42:01.703Z,3.00
2022-11-05T14:44:30.828Z,2.83
2022-11-05T14:47:03.120Z,3.03
2022-11-05T14:49:34.567Z,2.90
2022-11-05T14:52:07.950Z,2.53
2022-11-05T14:54:42.465Z,3.10
2022-11-05T14:57:15.476Z,2.60
2022-11-05T15:00:01.844Z,3.03
2022-11-05T15:02:36.817Z,2.90
2022-11-05T15:05:40.042Z,2.97
2022-11-05T15:08:39.058Z,2.90
2022-11-05T15:11:14.385Z,2.67
2022-11-05T15:13:56.609Z,2.73
2022-11-05T15:16:26.909Z,3.00
2022-11-05T15:18:56.347Z,2.87
2022-11-05T15:21:25.621Z,2.70
2022-11-05T15:23:57.284Z,3.00
2022-11-05T15:26:31.444Z,2.70
2022-11-05T15:29:01.876Z,3.10
2022-11-05T15:31:34.401Z,2.80
2022-11-05T15:34:18.147Z,3.10
2022-11-05T15:36:56.611Z,3.27
2022-11-05T15:39:31.647Z,3.13
2022-11-05T15:42:01.964Z,3.20
2022-11-05T15:44:33.086Z,3.17
2022-11-05T15:47:15.958Z,3.43
2022-11-05T15:49:45.771Z,3.10
2022-11-05T15:52:15.211Z,2.90
2022-11-05T15:54:43.880Z,2.57
2022-11-05T15:57:21.331Z,2.90
2022-11-05T15:59:50.811Z,2.80
2022-11-05T16:02:33.791Z,2.80
2022-11-05T16:05:03.389Z,2.90
2022-11-05T16:07:31.339Z,3.33
2022-11-05T16:10:01.490Z,3.43
2022-11-05T16:12:35.176Z,4.33
2022-11-05T16:15:19.649Z,3.87
2022-11-05T16:17:50.868Z,3.80
2022-11-05T16:20:21.463Z,3.40
2022-11-05T16:22:51.331Z,3.40
2022-11-05T16:25:37.469Z,3.30
2022-11-05T16:28:07.224Z,3.67
2022-11-05T16:30:36.405Z,3.67
2022-11-05T16:33:06.584Z,3.03
2022-11-05T16:35:34.746Z,3.40
2022-11-05T16:38:03.738Z,3.27
2022-11-05T16:40:31.563Z,2.93
2022-11-05T16:43:16.484Z,3.43
2022-11-05T16:45:45.852Z,3.03
2022-11-05T16:48:15.082Z,2.97
2022-11-05T16:50:43.798Z,3.50
2022-11-05T16:53:12.036Z,2.63
2022-11-05T16:55:42.248Z,2.90
2022-11-05T16:58:19.400Z,2.90
2022-11-05T17:00:49.478Z,3.30
2022-11-05T17:03:17.411Z,3.63
2022-11-05T17:05:45.353Z,3.90
2022-11-05T17:08:13.529Z,3.87
2022-11-05T17:10:41.559Z,3.20
2022-11-05T17:13:11.040Z,4.00
2022-11-05T17:15:38.884Z,3.77
2022-11-05T17:18:08.072Z,3.80
2022-11-05T17:20:40.667Z,3.87
2022-11-05T17:23:11.588Z,4.10
2022-11-05T17:25:40.563Z,3.70
2022-11-05T17:28:09.854Z,3.80
2022-11-05T17:30:40.359Z,3.77
2022-11-05T17:33:11.977Z,3.93
2022-11-05T17:35:40.579Z,4.23
2022-11-05T17:38:08.885Z,4.97
2022-11-05T17:40:37.716Z,3.93
2022-11-05T17:43:06.094Z,3.67
2022-11-05T17:45:34.338Z,3.80
2022-11-05T17:48:03.201Z,4.27
2022-11-05T17:50:32.376Z,3.70
2022-11-05T17:53:00.212Z,4.17
2022-11-05T17:55:28.106Z,4.10
2022-11-05T17:57:55.957Z,4.00
2022-11-05T18:00:25.369Z,4.30
2022-11-05T18:02:54.430Z,4.20
2022-11-05T18:05:24.016Z,5.37
2022-11-05T18:07:53.339Z,4.30
2022-11-05T18:10:21.222Z,4.67
2022-11-05T18:12:49.919Z,5.00
2022-11-05T18:15:18.686Z,4.50
2022-11-05T18:17:47.041Z,4.80
2022-11-05T18:20:19.302Z,4.67
2022-11-05T18:22:49.568Z,5.23
2022-11-05T18:25:25.769Z,7.23
2022-11-05T18:27:53.753Z,5.57
2022-11-05T18:30:21.616Z,5.03
2022-11-05T18:32:50.930Z,4.93
2022-11-05T18:35:18.993Z,5.10
2022-11-05T18:37:46.884Z,5.37
2022-11-05T18:40:14.708Z,4.90
2022-11-05T18:42:43.887Z,5.43
2022-11-05T18:45:12.574Z,5.20
2022-11-05T18:47:40.410Z,5.33
2022-11-05T18:50:10.314Z,4.63
2022-11-05T18:52:38.176Z,5.43
2022-11-05T18:55:07.276Z,5.17
2022-11-05T18:57:35.473Z,5.40
2022-11-05T19:00:05.553Z,5.73
2022-11-05T19:02:33.652Z,4.73
2022-11-05T19:07:49.502Z,5.07
2022-11-05T19:10:17.372Z,5.77
2022-11-05T19:12:45.182Z,5.37
2022-11-05T19:15:14.361Z,5.23
2022-11-05T19:17:42.198Z,6.17
2022-11-05T19:20:10.642Z,5.87
2022-11-05T19:22:38.567Z,5.87
2022-11-05T19:25:07.548Z,6.20
2022-11-05T19:27:37.438Z,5.70
2022-11-05T19:30:06.025Z,5.77
2022-11-05T19:32:35.246Z,5.90
2022-11-05T19:35:03.023Z,5.87
2022-11-05T19:37:30.902Z,6.30
2022-11-05T19:39:58.697Z,6.20
2022-11-05T19:42:27.665Z,6.00
2022-11-05T19:44:55.473Z,6.37
2022-11-05T19:47:23.303Z,6.67
2022-11-05T19:49:52.445Z,6.53
2022-11-05T19:52:20.271Z,5.97
2022-11-05T19:54:48.227Z,6.03
2022-11-05T19:57:16.065Z,6.20
2022-11-05T19:59:43.893Z,6.17
2022-11-05T20:02:15.975Z,6.80
2022-11-05T20:04:44.164Z,7.93
2022-11-05T20:07:13.346Z,6.40
2022-11-05T20:09:41.339Z,6.40
2022-11-05T20:12:09.222Z,6.40
2022-11-05T20:14:37.328Z,5.83
2022-11-05T20:17:05.195Z,6.40
2022-11-05T20:19:33.540Z,6.53
2022-11-05T20:22:01.784Z,6.27
2022-11-05T20:24:30.988Z,5.90
2022-11-05T20:26:58.821Z,5.53
2022-11-05T20:29:34.724Z,6.23
2022-11-05T20:32:03.929Z,5.73
2022-11-05T20:34:33.057Z,6.13
2022-11-05T20:37:01.574Z,5.93
2022-11-05T20:39:30.817Z,5.67
2022-11-05T20:42:00.370Z,5.97
2022-11-05T20:44:28.737Z,5.50
2022-11-05T20:46:56.599Z,5.47
2022-11-05T20:49:25.832Z,5.60
2022-11-05T20:51:54.093Z,6.03
2022-11-05T20:54:21.967Z,5.40
2022-11-05T20:56:51.175Z,5.60
2022-11-05T20:59:19.358Z,5.70
2022-11-05T21:01:47.260Z,5.67
2022-11-05T21:04:15.202Z,5.97
2022-11-05T21:06:43.028Z,5.50
2022-11-05T21:09:10.885Z,5.47
2022-11-05T21:11:52.745Z,4.87
2022-11-05T21:14:21.940Z,5.23
2022-11-05T21:16:49.859Z,5.40
2022-11-05T21:19:17.699Z,4.63
2022-11-05T21:21:45.515Z,4.97
2022-11-05T21:24:13.320Z,5.03
2022-11-05T21:26:41.162Z,5.27
2022-11-05T21:29:09.023Z,5.47
2022-11-05T21:31:38.684Z,4.63
2022-11-05T21:34:06.573Z,4.80
2022-11-05T21:36:35.250Z,4.90
2022-11-05T21:39:05.598Z,5.33
2022-11-05T21:41:35.710Z,5.37
2022-11-05T21:44:04.569Z,4.90
2022-11-05T21:46:32.472Z,5.20
2022-11-05T21:49:02.288Z,4.93
2022-11-05T21:51:47.921Z,5.10
2022-11-05T21:54:33.252Z,4.93
2022-11-05T21:57:18.590Z,4.87
2022-11-05T21:59:49.571Z,5.20
2022-11-05T22:02:19.466Z,5.00
2022-11-05T22:04:50.201Z,5.10
2022-11-05T22:07:19.981Z,5.33
2022-11-05T22:09:47.970Z,4.87
2022-11-05T22:12:16.729Z,4.97
2022-11-05T22:14:44.742Z,4.90
2022-11-05T22:17:14.253Z,4.90
2022-11-05T22:19:42.419Z,4.43
2022-11-05T22:22:11.805Z,4.90
2022-11-05T22:24:39.974Z,5.00
2022-11-05T22:27:09.949Z,4.30
2022-11-05T22:29:38.356Z,4.30
2022-11-05T22:32:07.234Z,4.27
2022-11-05T22:34:35.136Z,4.80
2022-11-05T22:37:02.985Z,4.60
2022-11-05T22:39:32.163Z,4.67
2022-11-05T22:42:05.545Z,4.00
2022-11-05T22:44:36.858Z,4.20
2022-11-05T22:47:05.345Z,3.97
2022-11-05T22:49:33.987Z,3.90
2022-11-05T22:52:01.819Z,3.90
2022-11-05T22:54:32.701Z,4.07
2022-11-05T22:57:04.442Z,3.83
2022-11-05T22:59:32.566Z,3.87
2022-11-05T23:02:03.911Z,4.10
2022-11-05T23:04:34.500Z,3.83
2022-11-05T23:07:24.623Z,4.00
2022-11-05T23:10:12.517Z,3.90
2022-11-05T23:12:43.021Z,3.50
2022-11-05T23:15:32.166Z,3.73
2022-11-05T23:18:17.927Z,3.50
2022-11-05T23:21:03.576Z,3.50
2022-11-05T23:23:49.242Z,3.50
2022-11-05T23:26:34.672Z,3.20
2022-11-05T23:29:04.218Z,3.30
2022-11-05T23:31:49.545Z,3.83
2022-11-05T23:34:17.347Z,3.80
2022-11-05T23:37:02.915Z,3.17
2022-11-05T23:39:30.781Z,3.33
2022-11-05T23:42:16.177Z,3.23
2022-11-05T23:45:03.030Z,3.30
2022-11-05T23:47:48.613Z,3.20
2022-11-05T23:50:16.584Z,3.30
2022-11-05T23:52:44.453Z,3.37
2022-11-05T23:55:12.285Z,3.47
2022-11-05T23:57:40.746Z,2.73
